Wales, AK

10:28 AM AKDT on October 01, 2014 (GMT -0800)
Tin City LRRS | Change Station
CLOSE
Current Station
Airport
Location: Tin City,
Elevation: 272 ft
Nearby Weather Stations

Elev 272 ft 65.56 °N, 167.92 °W | Updated 33 minutes ago

Mostly Cloudy
Mostly Cloudy
43 °F
Feels Like 37 °F
N
10
Wind Variable Wind from WNW

Today
High -- | Low -- °F
--% Chance of Precip.
Yesterday
High -- | Low -- °F
Precip. -- in
9:22 AM 8:38 PM
Waxing Crescent, 50% visible
Pressure 30.17 in
Visibility 10.0 miles
Clouds Mostly Cloudy 6000 ft
Windchill 37 °F
Dew Point 37 °F
Humidity 81%
Rainfall 0.00 in
Snow Depth 1 in , 0 in , 12 in
UV 0 out of 12
Pollen Not available.
Air Quality Not available.
Flu Activity Not available.
METAR PATC 011755Z 29009KT 10SM BKN060 06/03 A3016 RMK AO2A SLP217 56002

More Conditions Fewer Conditions

Pressure 30.17 in
Visibility 10.0 miles
Clouds Mostly Cloudy 6000 ft
Windchill 37 °F
Dew Point 37 °F
Humidity 81%
Rainfall 0.00 in
Snow Depth 1 in , 0 in , 12 in
UV 0 out of 12
Pollen Not available.
Air Quality Not available.
Flu Activity Not available.
METAR PATC 011755Z 29009KT 10SM BKN060 06/03 A3016 RMK AO2A SLP217 56002

More Conditions Fewer Conditions

10-Day Weather Forecast

Almanac

Astronomy

Oct. 01, 2014 Rise Set
Actual Time 9:22 AM AKDT 8:38 PM AKDT
Civil Twilight 8:32 AM AKDT 9:27 PM AKDT
Nautical Twilight 7:33 AM AKDT 10:27 PM AKDT
Astronomical Twilight 6:27 AM AKDT 11:31 PM AKDT
Moon 6:20 PM AKDT No Moon Set
Length of Visible Light 12h 55m
Length of Day
11h 15m
Tomorrow will be 6m 52s shorter.
Waxing Crescent, 50% of the Moon is Illuminated
Today
Waxing Crescent
Oct 1
First Quarter
Oct 8
Full
Oct 15
Last Quarter
Oct 23
New

Today's Extremes

State Highs State Lows

Community

WunderPhotos

Upload Photos

1,758,008 photos uploaded!

WunderBlogs® & News

By Dr. Jeff Masters
Director of Meteorology, Weather Underground
By Kari Strenfel
Meteorologist, Weather Underground
By Christopher C. Burt
Weather Historian, Weather Underground
October 1, 2014
October 1, 2014
October 1, 2014

Nearby

Snow Depth

Station Depth Elevation
Susitna Valley High 2 in 375 ft
Fort Yukon 1 in 430 ft
Moraine 0 in 2100 ft
Upper Tsaina River 0 in 1750 ft
Upper Chena 7 in 2850 ft

Earthquake Activity

City Distance Mag. Time & Date
No recent earthquake activity has been reported nearby.
Minimum magnitude displayed is 2.5.

Coastal Water Temperatures

Place Temperature
No Stations Reporting

Nearby Weather Stations